sensor_id;sensor_type;location;lat;lon;timestamp;P1;durP1;ratioP1;P2;durP2;ratioP2
47531;SDS011;33273;52.254;7.988;2023-02-02T00:00:17;22.00;;;3.35;;
47531;SDS011;33273;52.254;7.988;2023-02-02T00:02:43;13.60;;;3.85;;
47531;SDS011;33273;52.254;7.988;2023-02-02T00:05:09;18.17;;;4.57;;
47531;SDS011;33273;52.254;7.988;2023-02-02T00:07:37;16.35;;;4.80;;
47531;SDS011;33273;52.254;7.988;2023-02-02T00:10:03;12.93;;;3.67;;
47531;SDS011;33273;52.254;7.988;2023-02-02T00:12:29;21.50;;;5.60;;
47531;SDS011;33273;52.254;7.988;2023-02-02T00:14:56;11.80;;;2.80;;
47531;SDS011;33273;52.254;7.988;2023-02-02T00:17:22;21.42;;;5.57;;
47531;SDS011;33273;52.254;7.988;2023-02-02T00:19:49;14.20;;;4.18;;
47531;SDS011;33273;52.254;7.988;2023-02-02T00:22:15;17.20;;;4.77;;
47531;SDS011;33273;52.254;7.988;2023-02-02T00:24:41;20.85;;;2.90;;
47531;SDS011;33273;52.254;7.988;2023-02-02T00:27:10;13.10;;;2.97;;
47531;SDS011;33273;52.254;7.988;2023-02-02T00:29:37;18.17;;;3.15;;
47531;SDS011;33273;52.254;7.988;2023-02-02T00:32:07;18.30;;;3.88;;
47531;SDS011;33273;52.254;7.988;2023-02-02T00:34:33;17.60;;;3.47;;
47531;SDS011;33273;52.254;7.988;2023-02-02T00:36:58;12.77;;;3.15;;
47531;SDS011;33273;52.254;7.988;2023-02-02T00:39:24;15.05;;;3.22;;
47531;SDS011;33273;52.254;7.988;2023-02-02T00:41:51;15.15;;;3.10;;
47531;SDS011;33273;52.254;7.988;2023-02-02T00:44:17;14.30;;;4.13;;
47531;SDS011;33273;52.254;7.988;2023-02-02T00:47:02;18.75;;;3.20;;
47531;SDS011;33273;52.254;7.988;2023-02-02T00:49:28;16.48;;;3.83;;
47531;SDS011;33273;52.254;7.988;2023-02-02T00:51:54;19.63;;;3.97;;
47531;SDS011;33273;52.254;7.988;2023-02-02T00:54:20;15.73;;;4.07;;
47531;SDS011;33273;52.254;7.988;2023-02-02T00:56:47;15.13;;;2.92;;
47531;SDS011;33273;52.254;7.988;2023-02-02T00:59:13;19.80;;;3.50;;
47531;SDS011;33273;52.254;7.988;2023-02-02T01:01:39;8.45;;;2.88;;
47531;SDS011;33273;52.254;7.988;2023-02-02T01:04:05;13.35;;;2.80;;
47531;SDS011;33273;52.254;7.988;2023-02-02T01:06:30;17.17;;;3.10;;
47531;SDS011;33273;52.254;7.988;2023-02-02T01:08:56;20.70;;;2.97;;
47531;SDS011;33273;52.254;7.988;2023-02-02T01:11:24;12.38;;;3.55;;
47531;SDS011;33273;52.254;7.988;2023-02-02T01:13:50;19.80;;;3.25;;
47531;SDS011;33273;52.254;7.988;2023-02-02T01:16:16;9.10;;;2.92;;
47531;SDS011;33273;52.254;7.988;2023-02-02T01:18:42;12.37;;;4.03;;
47531;SDS011;33273;52.254;7.988;2023-02-02T01:21:09;11.43;;;3.22;;
47531;SDS011;33273;52.254;7.988;2023-02-02T01:23:37;17.88;;;3.00;;
47531;SDS011;33273;52.254;7.988;2023-02-02T01:26:05;10.25;;;2.97;;
47531;SDS011;33273;52.254;7.988;2023-02-02T01:28:33;14.27;;;6.00;;
47531;SDS011;33273;52.254;7.988;2023-02-02T01:31:07;14.38;;;3.10;;
47531;SDS011;33273;52.254;7.988;2023-02-02T01:33:37;17.95;;;3.70;;
47531;SDS011;33273;52.254;7.988;2023-02-02T01:36:05;12.13;;;2.60;;
47531;SDS011;33273;52.254;7.988;2023-02-02T01:38:34;13.18;;;3.10;;
47531;SDS011;33273;52.254;7.988;2023-02-02T01:41:00;12.55;;;3.65;;
47531;SDS011;33273;52.254;7.988;2023-02-02T01:46:23;15.70;;;2.97;;
47531;SDS011;33273;52.254;7.988;2023-02-02T01:48:54;10.50;;;2.38;;
47531;SDS011;33273;52.254;7.988;2023-02-02T01:51:58;17.27;;;2.97;;
47531;SDS011;33273;52.254;7.988;2023-02-02T01:54:23;10.63;;;2.55;;
47531;SDS011;33273;52.254;7.988;2023-02-02T01:56:57;14.95;;;3.03;;
47531;SDS011;33273;52.254;7.988;2023-02-02T01:59:31;14.20;;;3.00;;
47531;SDS011;33273;52.254;7.988;2023-02-02T02:01:58;10.52;;;2.65;;
47531;SDS011;33273;52.254;7.988;2023-02-02T02:06:52;11.32;;;2.92;;
47531;SDS011;33273;52.254;7.988;2023-02-02T02:09:19;11.75;;;2.88;;
47531;SDS011;33273;52.254;7.988;2023-02-02T02:11:45;12.70;;;2.83;;
47531;SDS011;33273;52.254;7.988;2023-02-02T02:14:11;9.70;;;2.67;;
47531;SDS011;33273;52.254;7.988;2023-02-02T02:37:53;15.75;;;2.78;;
47531;SDS011;33273;52.254;7.988;2023-02-02T02:42:57;11.70;;;2.83;;
47531;SDS011;33273;52.254;7.988;2023-02-02T02:45:26;7.15;;;2.53;;
47531;SDS011;33273;52.254;7.988;2023-02-02T02:47:55;17.58;;;3.22;;
47531;SDS011;33273;52.254;7.988;2023-02-02T02:50:22;15.52;;;3.33;;
47531;SDS011;33273;52.254;7.988;2023-02-02T02:52:49;8.95;;;3.30;;
47531;SDS011;33273;52.254;7.988;2023-02-02T02:55:29;13.00;;;3.95;;
47531;SDS011;33273;52.254;7.988;2023-02-02T02:58:18;12.88;;;2.80;;
47531;SDS011;33273;52.254;7.988;2023-02-02T03:00:51;16.42;;;2.63;;
47531;SDS011;33273;52.254;7.988;2023-02-02T03:03:32;12.50;;;2.92;;
47531;SDS011;33273;52.254;7.988;2023-02-02T03:08:45;12.38;;;2.42;;
47531;SDS011;33273;52.254;7.988;2023-02-02T03:11:14;12.60;;;2.53;;
47531;SDS011;33273;52.254;7.988;2023-02-02T03:13:41;17.75;;;3.03;;
47531;SDS011;33273;52.254;7.988;2023-02-02T03:16:09;13.70;;;2.78;;
47531;SDS011;33273;52.254;7.988;2023-02-02T03:18:35;11.23;;;2.75;;
47531;SDS011;33273;52.254;7.988;2023-02-02T03:21:01;10.77;;;3.20;;
47531;SDS011;33273;52.254;7.988;2023-02-02T03:23:27;13.35;;;2.70;;
47531;SDS011;33273;52.254;7.988;2023-02-02T03:25:54;11.40;;;2.90;;
47531;SDS011;33273;52.254;7.988;2023-02-02T03:28:21;14.23;;;3.20;;
47531;SDS011;33273;52.254;7.988;2023-02-02T03:30:48;13.05;;;3.00;;
47531;SDS011;33273;52.254;7.988;2023-02-02T03:35:48;12.90;;;3.72;;
47531;SDS011;33273;52.254;7.988;2023-02-02T03:38:15;18.98;;;4.50;;
47531;SDS011;33273;52.254;7.988;2023-02-02T03:40:41;11.93;;;3.17;;
47531;SDS011;33273;52.254;7.988;2023-02-02T03:43:07;14.43;;;3.43;;
47531;SDS011;33273;52.254;7.988;2023-02-02T03:45:33;14.65;;;3.70;;
47531;SDS011;33273;52.254;7.988;2023-02-02T03:48:04;11.02;;;3.13;;
47531;SDS011;33273;52.254;7.988;2023-02-02T03:50:31;14.48;;;3.88;;
47531;SDS011;33273;52.254;7.988;2023-02-02T03:52:57;17.58;;;3.38;;
47531;SDS011;33273;52.254;7.988;2023-02-02T03:55:23;10.73;;;3.43;;
47531;SDS011;33273;52.254;7.988;2023-02-02T03:57:49;12.00;;;4.70;;
47531;SDS011;33273;52.254;7.988;2023-02-02T04:00:16;13.68;;;3.97;;
47531;SDS011;33273;52.254;7.988;2023-02-02T04:02:42;13.77;;;3.97;;
47531;SDS011;33273;52.254;7.988;2023-02-02T04:05:08;9.25;;;3.60;;
47531;SDS011;33273;52.254;7.988;2023-02-02T04:07:34;14.57;;;3.10;;
47531;SDS011;33273;52.254;7.988;2023-02-02T04:10:01;14.73;;;4.13;;
47531;SDS011;33273;52.254;7.988;2023-02-02T04:12:28;10.50;;;3.28;;
47531;SDS011;33273;52.254;7.988;2023-02-02T04:14:53;18.83;;;4.23;;
47531;SDS011;33273;52.254;7.988;2023-02-02T04:17:19;9.23;;;3.27;;
47531;SDS011;33273;52.254;7.988;2023-02-02T04:19:45;15.57;;;3.77;;
47531;SDS011;33273;52.254;7.988;2023-02-02T04:22:11;12.13;;;3.87;;
47531;SDS011;33273;52.254;7.988;2023-02-02T04:24:37;15.53;;;4.80;;
47531;SDS011;33273;52.254;7.988;2023-02-02T04:27:03;18.37;;;4.30;;
47531;SDS011;33273;52.254;7.988;2023-02-02T04:29:28;11.47;;;3.90;;
47531;SDS011;33273;52.254;7.988;2023-02-02T04:31:54;19.50;;;2.83;;
47531;SDS011;33273;52.254;7.988;2023-02-02T04:34:20;8.80;;;2.03;;
47531;SDS011;33273;52.254;7.988;2023-02-02T04:36:46;13.00;;;2.73;;
47531;SDS011;33273;52.254;7.988;2023-02-02T04:39:19;12.07;;;2.70;;
47531;SDS011;33273;52.254;7.988;2023-02-02T04:41:46;12.23;;;2.50;;
47531;SDS011;33273;52.254;7.988;2023-02-02T04:44:12;12.23;;;2.60;;
47531;SDS011;33273;52.254;7.988;2023-02-02T04:46:41;8.95;;;2.25;;
47531;SDS011;33273;52.254;7.988;2023-02-02T04:49:08;8.02;;;2.72;;
47531;SDS011;33273;52.254;7.988;2023-02-02T04:51:35;8.10;;;2.20;;
47531;SDS011;33273;52.254;7.988;2023-02-02T04:54:05;12.82;;;2.80;;
47531;SDS011;33273;52.254;7.988;2023-02-02T04:58:59;9.18;;;1.80;;
47531;SDS011;33273;52.254;7.988;2023-02-02T05:01:25;10.65;;;2.28;;
47531;SDS011;33273;52.254;7.988;2023-02-02T05:03:51;12.18;;;2.45;;
47531;SDS011;33273;52.254;7.988;2023-02-02T05:06:17;12.48;;;2.10;;
47531;SDS011;33273;52.254;7.988;2023-02-02T05:08:44;5.60;;;1.92;;
47531;SDS011;33273;52.254;7.988;2023-02-02T05:11:13;8.50;;;1.73;;
47531;SDS011;33273;52.254;7.988;2023-02-02T05:13:45;9.25;;;2.60;;
47531;SDS011;33273;52.254;7.988;2023-02-02T05:16:15;10.23;;;2.63;;
47531;SDS011;33273;52.254;7.988;2023-02-02T05:18:42;4.55;;;1.38;;
47531;SDS011;33273;52.254;7.988;2023-02-02T05:21:12;5.78;;;1.52;;
47531;SDS011;33273;52.254;7.988;2023-02-02T05:23:38;5.20;;;1.20;;
47531;SDS011;33273;52.254;7.988;2023-02-02T05:26:04;4.40;;;1.40;;
47531;SDS011;33273;52.254;7.988;2023-02-02T05:28:32;5.13;;;1.33;;
47531;SDS011;33273;52.254;7.988;2023-02-02T05:31:03;4.40;;;1.00;;
47531;SDS011;33273;52.254;7.988;2023-02-02T05:33:31;4.90;;;1.60;;
47531;SDS011;33273;52.254;7.988;2023-02-02T05:35:57;3.28;;;1.27;;
47531;SDS011;33273;52.254;7.988;2023-02-02T05:38:23;3.83;;;1.10;;
47531;SDS011;33273;52.254;7.988;2023-02-02T05:40:51;5.23;;;1.43;;
47531;SDS011;33273;52.254;7.988;2023-02-02T05:43:17;4.53;;;1.42;;
47531;SDS011;33273;52.254;7.988;2023-02-02T05:45:43;9.15;;;1.58;;
47531;SDS011;33273;52.254;7.988;2023-02-02T05:48:12;6.40;;;1.60;;
47531;SDS011;33273;52.254;7.988;2023-02-02T05:50:39;4.65;;;1.60;;
47531;SDS011;33273;52.254;7.988;2023-02-02T05:53:07;6.05;;;2.25;;
47531;SDS011;33273;52.254;7.988;2023-02-02T05:55:34;7.55;;;2.13;;
47531;SDS011;33273;52.254;7.988;2023-02-02T05:58:00;8.03;;;2.57;;
47531;SDS011;33273;52.254;7.988;2023-02-02T06:00:25;6.50;;;1.77;;
47531;SDS011;33273;52.254;7.988;2023-02-02T06:05:20;7.68;;;1.77;;
47531;SDS011;33273;52.254;7.988;2023-02-02T06:07:46;7.20;;;2.37;;
47531;SDS011;33273;52.254;7.988;2023-02-02T06:10:12;6.83;;;2.20;;
47531;SDS011;33273;52.254;7.988;2023-02-02T06:12:38;8.97;;;2.80;;
47531;SDS011;33273;52.254;7.988;2023-02-02T06:15:04;7.00;;;1.60;;
47531;SDS011;33273;52.254;7.988;2023-02-02T06:17:38;8.98;;;1.85;;
47531;SDS011;33273;52.254;7.988;2023-02-02T06:20:04;13.15;;;2.30;;
47531;SDS011;33273;52.254;7.988;2023-02-02T06:22:31;5.78;;;1.77;;
47531;SDS011;33273;52.254;7.988;2023-02-02T06:24:57;9.27;;;2.65;;
47531;SDS011;33273;52.254;7.988;2023-02-02T06:27:23;6.72;;;2.45;;
47531;SDS011;33273;52.254;7.988;2023-02-02T06:29:49;8.32;;;2.00;;
47531;SDS011;33273;52.254;7.988;2023-02-02T06:32:15;12.27;;;2.50;;
47531;SDS011;33273;52.254;7.988;2023-02-02T06:34:40;11.93;;;2.57;;
47531;SDS011;33273;52.254;7.988;2023-02-02T06:37:06;6.23;;;2.50;;
47531;SDS011;33273;52.254;7.988;2023-02-02T06:39:32;5.13;;;2.10;;
47531;SDS011;33273;52.254;7.988;2023-02-02T06:41:58;5.13;;;1.77;;
47531;SDS011;33273;52.254;7.988;2023-02-02T06:44:24;9.00;;;1.23;;
47531;SDS011;33273;52.254;7.988;2023-02-02T06:46:51;2.47;;;1.43;;
47531;SDS011;33273;52.254;7.988;2023-02-02T06:49:17;6.38;;;1.30;;
47531;SDS011;33273;52.254;7.988;2023-02-02T06:51:43;2.97;;;1.40;;
47531;SDS011;33273;52.254;7.988;2023-02-02T06:54:15;4.22;;;1.30;;
47531;SDS011;33273;52.254;7.988;2023-02-02T06:56:42;6.65;;;1.40;;
47531;SDS011;33273;52.254;7.988;2023-02-02T06:59:08;7.93;;;1.33;;
47531;SDS011;33273;52.254;7.988;2023-02-02T07:01:34;10.33;;;2.10;;
47531;SDS011;33273;52.254;7.988;2023-02-02T07:04:00;6.63;;;1.43;;
47531;SDS011;33273;52.254;7.988;2023-02-02T07:06:27;4.53;;;1.70;;
47531;SDS011;33273;52.254;7.988;2023-02-02T07:08:53;3.42;;;1.20;;
47531;SDS011;33273;52.254;7.988;2023-02-02T07:11:20;6.82;;;1.55;;
47531;SDS011;33273;52.254;7.988;2023-02-02T07:13:47;5.97;;;1.45;;
47531;SDS011;33273;52.254;7.988;2023-02-02T07:16:14;5.13;;;1.50;;
47531;SDS011;33273;52.254;7.988;2023-02-02T07:18:41;5.38;;;2.55;;
47531;SDS011;33273;52.254;7.988;2023-02-02T07:21:08;10.90;;;1.80;;
47531;SDS011;33273;52.254;7.988;2023-02-02T07:23:39;7.68;;;1.20;;
47531;SDS011;33273;52.254;7.988;2023-02-02T07:26:12;5.25;;;1.13;;
47531;SDS011;33273;52.254;7.988;2023-02-02T07:28:41;4.90;;;1.20;;
47531;SDS011;33273;52.254;7.988;2023-02-02T07:31:25;7.10;;;1.50;;
47531;SDS011;33273;52.254;7.988;2023-02-02T07:33:52;3.15;;;1.17;;
47531;SDS011;33273;52.254;7.988;2023-02-02T07:38:49;4.38;;;1.80;;
47531;SDS011;33273;52.254;7.988;2023-02-02T07:41:21;4.93;;;1.42;;
47531;SDS011;33273;52.254;7.988;2023-02-02T07:43:49;5.47;;;2.10;;
47531;SDS011;33273;52.254;7.988;2023-02-02T07:46:16;5.97;;;1.60;;
47531;SDS011;33273;52.254;7.988;2023-02-02T07:51:10;6.53;;;1.38;;
47531;SDS011;33273;52.254;7.988;2023-02-02T07:53:41;3.17;;;1.17;;
47531;SDS011;33273;52.254;7.988;2023-02-02T07:56:08;5.05;;;1.70;;
47531;SDS011;33273;52.254;7.988;2023-02-02T07:58:36;3.20;;;1.38;;
47531;SDS011;33273;52.254;7.988;2023-02-02T08:01:04;2.53;;;1.10;;
47531;SDS011;33273;52.254;7.988;2023-02-02T08:03:31;2.72;;;1.17;;
47531;SDS011;33273;52.254;7.988;2023-02-02T08:05:58;4.00;;;1.55;;
47531;SDS011;33273;52.254;7.988;2023-02-02T08:08:24;4.43;;;1.45;;
47531;SDS011;33273;52.254;7.988;2023-02-02T08:10:51;4.38;;;1.35;;
47531;SDS011;33273;52.254;7.988;2023-02-02T08:13:18;8.98;;;1.45;;
47531;SDS011;33273;52.254;7.988;2023-02-02T08:15:44;7.22;;;1.98;;
47531;SDS011;33273;52.254;7.988;2023-02-02T08:18:10;5.27;;;1.20;;
47531;SDS011;33273;52.254;7.988;2023-02-02T08:20:36;6.45;;;1.70;;
47531;SDS011;33273;52.254;7.988;2023-02-02T08:23:02;4.18;;;1.13;;
47531;SDS011;33273;52.254;7.988;2023-02-02T08:25:28;2.77;;;1.20;;
47531;SDS011;33273;52.254;7.988;2023-02-02T08:27:54;5.33;;;1.53;;
47531;SDS011;33273;52.254;7.988;2023-02-02T08:30:26;4.15;;;1.00;;
47531;SDS011;33273;52.254;7.988;2023-02-02T08:32:52;7.88;;;2.05;;
47531;SDS011;33273;52.254;7.988;2023-02-02T08:35:17;4.63;;;1.57;;
47531;SDS011;33273;52.254;7.988;2023-02-02T08:37:46;5.30;;;2.23;;
47531;SDS011;33273;52.254;7.988;2023-02-02T08:40:13;4.30;;;1.58;;
47531;SDS011;33273;52.254;7.988;2023-02-02T08:42:39;10.13;;;1.42;;
47531;SDS011;33273;52.254;7.988;2023-02-02T08:45:05;5.60;;;1.50;;
47531;SDS011;33273;52.254;7.988;2023-02-02T08:47:32;5.28;;;1.65;;
47531;SDS011;33273;52.254;7.988;2023-02-02T08:49:59;5.37;;;1.50;;
47531;SDS011;33273;52.254;7.988;2023-02-02T08:52:25;5.93;;;1.67;;
47531;SDS011;33273;52.254;7.988;2023-02-02T08:54:50;3.37;;;1.40;;
47531;SDS011;33273;52.254;7.988;2023-02-02T08:57:16;4.97;;;1.40;;
47531;SDS011;33273;52.254;7.988;2023-02-02T08:59:42;3.27;;;1.53;;
47531;SDS011;33273;52.254;7.988;2023-02-02T09:02:09;5.40;;;2.00;;
47531;SDS011;33273;52.254;7.988;2023-02-02T09:04:38;5.30;;;1.70;;
47531;SDS011;33273;52.254;7.988;2023-02-02T09:07:05;4.97;;;1.65;;
47531;SDS011;33273;52.254;7.988;2023-02-02T09:09:32;4.60;;;1.70;;
47531;SDS011;33273;52.254;7.988;2023-02-02T09:11:57;4.63;;;1.60;;
47531;SDS011;33273;52.254;7.988;2023-02-02T09:14:24;4.15;;;1.48;;
47531;SDS011;33273;52.254;7.988;2023-02-02T09:16:50;4.30;;;1.60;;
47531;SDS011;33273;52.254;7.988;2023-02-02T09:19:16;5.93;;;1.80;;
47531;SDS011;33273;52.254;7.988;2023-02-02T09:21:42;4.20;;;1.70;;
47531;SDS011;33273;52.254;7.988;2023-02-02T09:24:09;6.60;;;1.93;;
47531;SDS011;33273;52.254;7.988;2023-02-02T09:26:37;7.75;;;1.70;;
47531;SDS011;33273;52.254;7.988;2023-02-02T09:29:05;7.00;;;1.95;;
47531;SDS011;33273;52.254;7.988;2023-02-02T09:31:33;5.53;;;1.90;;
47531;SDS011;33273;52.254;7.988;2023-02-02T09:34:01;7.78;;;2.20;;
47531;SDS011;33273;52.254;7.988;2023-02-02T09:36:31;7.97;;;2.47;;
47531;SDS011;33273;52.254;7.988;2023-02-02T09:38:57;7.80;;;1.85;;
47531;SDS011;33273;52.254;7.988;2023-02-02T09:49:25;5.55;;;1.60;;
47531;SDS011;33273;52.254;7.988;2023-02-02T09:52:11;7.88;;;2.30;;
47531;SDS011;33273;52.254;7.988;2023-02-02T09:54:47;5.25;;;1.88;;
47531;SDS011;33273;52.254;7.988;2023-02-02T09:57:17;6.30;;;2.67;;
47531;SDS011;33273;52.254;7.988;2023-02-02T09:59:48;6.82;;;2.05;;
47531;SDS011;33273;52.254;7.988;2023-02-02T10:02:18;5.65;;;1.90;;
47531;SDS011;33273;52.254;7.988;2023-02-02T10:04:53;5.57;;;2.00;;
47531;SDS011;33273;52.254;7.988;2023-02-02T10:07:34;8.20;;;3.22;;
47531;SDS011;33273;52.254;7.988;2023-02-02T10:10:09;10.30;;;2.47;;
47531;SDS011;33273;52.254;7.988;2023-02-02T10:16:11;10.73;;;2.28;;
47531;SDS011;33273;52.254;7.988;2023-02-02T10:18:54;7.25;;;2.15;;
47531;SDS011;33273;52.254;7.988;2023-02-02T10:24:02;5.57;;;2.67;;
47531;SDS011;33273;52.254;7.988;2023-02-02T10:26:38;5.22;;;1.95;;
47531;SDS011;33273;52.254;7.988;2023-02-02T10:35:02;7.30;;;1.70;;
47531;SDS011;33273;52.254;7.988;2023-02-02T10:37:52;8.68;;;1.92;;
47531;SDS011;33273;52.254;7.988;2023-02-02T10:46:02;10.35;;;2.20;;
47531;SDS011;33273;52.254;7.988;2023-02-02T10:48:33;10.23;;;1.85;;
47531;SDS011;33273;52.254;7.988;2023-02-02T10:51:09;9.85;;;1.85;;
47531;SDS011;33273;52.254;7.988;2023-02-02T10:53:43;8.77;;;1.83;;
47531;SDS011;33273;52.254;7.988;2023-02-02T10:59:05;9.73;;;2.05;;
47531;SDS011;33273;52.254;7.988;2023-02-02T11:01:38;7.20;;;2.05;;
47531;SDS011;33273;52.254;7.988;2023-02-02T11:04:10;10.30;;;2.65;;
47531;SDS011;33273;52.254;7.988;2023-02-02T11:06:58;8.95;;;1.80;;
47531;SDS011;33273;52.254;7.988;2023-02-02T11:09:31;9.07;;;2.90;;
47531;SDS011;33273;52.254;7.988;2023-02-02T11:12:04;7.18;;;1.67;;
47531;SDS011;33273;52.254;7.988;2023-02-02T11:14:48;6.10;;;2.00;;
47531;SDS011;33273;52.254;7.988;2023-02-02T11:17:23;4.57;;;1.60;;
47531;SDS011;33273;52.254;7.988;2023-02-02T11:19:51;7.82;;;2.38;;
47531;SDS011;33273;52.254;7.988;2023-02-02T11:22:40;7.40;;;3.10;;
47531;SDS011;33273;52.254;7.988;2023-02-02T11:25:09;5.95;;;1.95;;
47531;SDS011;33273;52.254;7.988;2023-02-02T11:27:59;6.68;;;2.00;;
47531;SDS011;33273;52.254;7.988;2023-02-02T11:30:45;5.82;;;2.00;;
47531;SDS011;33273;52.254;7.988;2023-02-02T11:33:31;7.68;;;2.20;;
47531;SDS011;33273;52.254;7.988;2023-02-02T11:36:04;8.05;;;3.22;;
47531;SDS011;33273;52.254;7.988;2023-02-02T11:38:45;6.88;;;2.00;;
47531;SDS011;33273;52.254;7.988;2023-02-02T11:41:11;7.67;;;2.60;;
47531;SDS011;33273;52.254;7.988;2023-02-02T11:43:39;6.63;;;2.17;;
47531;SDS011;33273;52.254;7.988;2023-02-02T11:46:20;7.43;;;2.95;;
47531;SDS011;33273;52.254;7.988;2023-02-02T11:48:47;7.82;;;2.65;;
47531;SDS011;33273;52.254;7.988;2023-02-02T11:51:21;7.82;;;2.50;;
47531;SDS011;33273;52.254;7.988;2023-02-02T11:53:49;6.85;;;2.45;;
47531;SDS011;33273;52.254;7.988;2023-02-02T11:56:39;6.10;;;2.25;;
47531;SDS011;33273;52.254;7.988;2023-02-02T11:59:09;7.13;;;2.38;;
47531;SDS011;33273;52.254;7.988;2023-02-02T12:01:51;7.88;;;2.40;;
47531;SDS011;33273;52.254;7.988;2023-02-02T12:04:34;6.78;;;2.58;;
47531;SDS011;33273;52.254;7.988;2023-02-02T12:09:53;8.60;;;2.90;;
47531;SDS011;33273;52.254;7.988;2023-02-02T12:21:41;8.18;;;2.70;;
47531;SDS011;33273;52.254;7.988;2023-02-02T12:35:46;7.97;;;3.10;;
47531;SDS011;33273;52.254;7.988;2023-02-02T12:38:27;9.75;;;3.13;;
47531;SDS011;33273;52.254;7.988;2023-02-02T12:49:58;8.75;;;3.40;;
47531;SDS011;33273;52.254;7.988;2023-02-02T12:55:39;13.60;;;3.63;;
47531;SDS011;33273;52.254;7.988;2023-02-02T13:01:09;9.30;;;3.72;;
47531;SDS011;33273;52.254;7.988;2023-02-02T13:09:16;7.30;;;2.92;;
47531;SDS011;33273;52.254;7.988;2023-02-02T13:14:24;11.32;;;3.53;;
47531;SDS011;33273;52.254;7.988;2023-02-02T13:16:52;11.60;;;4.68;;
47531;SDS011;33273;52.254;7.988;2023-02-02T13:22:21;8.18;;;3.65;;
47531;SDS011;33273;52.254;7.988;2023-02-02T13:25:14;11.57;;;3.40;;
47531;SDS011;33273;52.254;7.988;2023-02-02T13:28:02;6.60;;;3.30;;
47531;SDS011;33273;52.254;7.988;2023-02-02T13:30:32;13.25;;;4.03;;
47531;SDS011;33273;52.254;7.988;2023-02-02T13:33:04;9.68;;;3.95;;
47531;SDS011;33273;52.254;7.988;2023-02-02T13:38:31;6.95;;;3.30;;
47531;SDS011;33273;52.254;7.988;2023-02-02T13:41:06;13.00;;;3.85;;
47531;SDS011;33273;52.254;7.988;2023-02-02T13:49:23;12.20;;;3.05;;
47531;SDS011;33273;52.254;7.988;2023-02-02T14:05:25;9.35;;;3.63;;
47531;SDS011;33273;52.254;7.988;2023-02-02T14:08:25;18.10;;;10.05;;
47531;SDS011;33273;52.254;7.988;2023-02-02T14:19:13;8.45;;;3.60;;
47531;SDS011;33273;52.254;7.988;2023-02-02T14:31:56;7.45;;;3.60;;
47531;SDS011;33273;52.254;7.988;2023-02-02T14:34:43;5.55;;;3.33;;
47531;SDS011;33273;52.254;7.988;2023-02-02T14:37:13;7.30;;;3.13;;
47531;SDS011;33273;52.254;7.988;2023-02-02T14:45:47;6.70;;;3.05;;
47531;SDS011;33273;52.254;7.988;2023-02-02T14:48:34;5.07;;;2.50;;
47531;SDS011;33273;52.254;7.988;2023-02-02T14:51:03;9.02;;;2.80;;
47531;SDS011;33273;52.254;7.988;2023-02-02T14:53:38;6.75;;;2.60;;
47531;SDS011;33273;52.254;7.988;2023-02-02T14:56:12;5.57;;;2.70;;
47531;SDS011;33273;52.254;7.988;2023-02-02T15:06:36;9.50;;;2.78;;
47531;SDS011;33273;52.254;7.988;2023-02-02T15:19:48;6.67;;;2.93;;
47531;SDS011;33273;52.254;7.988;2023-02-02T15:25:17;6.30;;;3.00;;
47531;SDS011;33273;52.254;7.988;2023-02-02T15:27:52;6.25;;;3.15;;
47531;SDS011;33273;52.254;7.988;2023-02-02T15:30:25;5.30;;;3.05;;
47531;SDS011;33273;52.254;7.988;2023-02-02T15:32:54;8.57;;;3.85;;
47531;SDS011;33273;52.254;7.988;2023-02-02T15:35:25;5.90;;;3.28;;
47531;SDS011;33273;52.254;7.988;2023-02-02T15:37:57;6.28;;;3.70;;
47531;SDS011;33273;52.254;7.988;2023-02-02T15:40:25;5.38;;;3.70;;
47531;SDS011;33273;52.254;7.988;2023-02-02T15:43:04;7.07;;;3.42;;
47531;SDS011;33273;52.254;7.988;2023-02-02T15:48:19;5.50;;;3.67;;
47531;SDS011;33273;52.254;7.988;2023-02-02T15:50:46;6.45;;;3.05;;
47531;SDS011;33273;52.254;7.988;2023-02-02T15:53:20;5.03;;;3.20;;
47531;SDS011;33273;52.254;7.988;2023-02-02T15:56:01;7.28;;;4.18;;
47531;SDS011;33273;52.254;7.988;2023-02-02T15:58:48;10.23;;;6.25;;
47531;SDS011;33273;52.254;7.988;2023-02-02T16:01:20;6.93;;;4.60;;
47531;SDS011;33273;52.254;7.988;2023-02-02T16:06:14;6.82;;;3.85;;
47531;SDS011;33273;52.254;7.988;2023-02-02T16:08:41;7.13;;;4.13;;
47531;SDS011;33273;52.254;7.988;2023-02-02T16:11:17;8.18;;;4.25;;
47531;SDS011;33273;52.254;7.988;2023-02-02T16:16:34;6.43;;;4.00;;
47531;SDS011;33273;52.254;7.988;2023-02-02T16:19:04;7.55;;;3.88;;
47531;SDS011;33273;52.254;7.988;2023-02-02T16:21:43;5.90;;;3.75;;
47531;SDS011;33273;52.254;7.988;2023-02-02T16:27:05;6.53;;;3.85;;
47531;SDS011;33273;52.254;7.988;2023-02-02T16:29:34;5.70;;;3.70;;
47531;SDS011;33273;52.254;7.988;2023-02-02T16:32:01;8.10;;;5.30;;
47531;SDS011;33273;52.254;7.988;2023-02-02T16:39:36;7.03;;;4.33;;
47531;SDS011;33273;52.254;7.988;2023-02-02T16:42:10;6.70;;;3.80;;
47531;SDS011;33273;52.254;7.988;2023-02-02T16:49:51;6.65;;;4.05;;
47531;SDS011;33273;52.254;7.988;2023-02-02T16:55:23;6.65;;;4.10;;
47531;SDS011;33273;52.254;7.988;2023-02-02T16:57:53;7.57;;;5.50;;
47531;SDS011;33273;52.254;7.988;2023-02-02T17:00:26;8.65;;;5.90;;
47531;SDS011;33273;52.254;7.988;2023-02-02T17:02:59;8.80;;;5.50;;
47531;SDS011;33273;52.254;7.988;2023-02-02T17:08:01;7.68;;;4.72;;
47531;SDS011;33273;52.254;7.988;2023-02-02T17:10:36;7.03;;;4.60;;
47531;SDS011;33273;52.254;7.988;2023-02-02T17:16:00;9.77;;;7.15;;
47531;SDS011;33273;52.254;7.988;2023-02-02T17:18:27;7.10;;;4.97;;
47531;SDS011;33273;52.254;7.988;2023-02-02T17:20:53;8.73;;;5.18;;
47531;SDS011;33273;52.254;7.988;2023-02-02T17:23:28;7.60;;;4.72;;
47531;SDS011;33273;52.254;7.988;2023-02-02T17:25:56;7.55;;;4.60;;
47531;SDS011;33273;52.254;7.988;2023-02-02T17:28:24;7.20;;;5.20;;
47531;SDS011;33273;52.254;7.988;2023-02-02T17:30:52;8.60;;;5.30;;
47531;SDS011;33273;52.254;7.988;2023-02-02T17:33:26;8.85;;;5.47;;
47531;SDS011;33273;52.254;7.988;2023-02-02T17:35:52;8.18;;;5.78;;
47531;SDS011;33273;52.254;7.988;2023-02-02T17:38:19;10.07;;;6.28;;
47531;SDS011;33273;52.254;7.988;2023-02-02T17:40:46;9.52;;;6.28;;
47531;SDS011;33273;52.254;7.988;2023-02-02T17:43:12;8.10;;;5.90;;
47531;SDS011;33273;52.254;7.988;2023-02-02T17:48:05;11.07;;;6.40;;
47531;SDS011;33273;52.254;7.988;2023-02-02T17:50:31;9.75;;;7.10;;
47531;SDS011;33273;52.254;7.988;2023-02-02T17:52:58;10.90;;;7.90;;
47531;SDS011;33273;52.254;7.988;2023-02-02T17:55:26;10.85;;;7.70;;
47531;SDS011;33273;52.254;7.988;2023-02-02T17:58:01;10.18;;;7.60;;
47531;SDS011;33273;52.254;7.988;2023-02-02T18:00:28;10.93;;;6.95;;
47531;SDS011;33273;52.254;7.988;2023-02-02T18:02:58;12.68;;;7.40;;
47531;SDS011;33273;52.254;7.988;2023-02-02T18:05:32;10.60;;;7.40;;
47531;SDS011;33273;52.254;7.988;2023-02-02T18:07:57;12.10;;;8.57;;
47531;SDS011;33273;52.254;7.988;2023-02-02T18:10:23;13.10;;;8.20;;
47531;SDS011;33273;52.254;7.988;2023-02-02T18:12:50;12.20;;;8.32;;
47531;SDS011;33273;52.254;7.988;2023-02-02T18:15:16;13.13;;;8.80;;
47531;SDS011;33273;52.254;7.988;2023-02-02T18:17:44;13.93;;;8.65;;
47531;SDS011;33273;52.254;7.988;2023-02-02T18:20:13;12.15;;;8.38;;
47531;SDS011;33273;52.254;7.988;2023-02-02T18:22:42;13.15;;;8.88;;
47531;SDS011;33273;52.254;7.988;2023-02-02T18:25:14;13.95;;;9.00;;
47531;SDS011;33273;52.254;7.988;2023-02-02T18:27:43;11.88;;;8.18;;
47531;SDS011;33273;52.254;7.988;2023-02-02T18:30:10;13.77;;;8.45;;
47531;SDS011;33273;52.254;7.988;2023-02-02T18:32:40;12.15;;;8.02;;
47531;SDS011;33273;52.254;7.988;2023-02-02T18:35:07;15.45;;;9.13;;
47531;SDS011;33273;52.254;7.988;2023-02-02T18:37:41;13.57;;;8.93;;
47531;SDS011;33273;52.254;7.988;2023-02-02T18:40:07;14.50;;;9.38;;